Time;durP1;ratioP1;P1;durP2;ratioP2;P2;SDS_P1;SDS_P2;PMS_P1;PMS_P2;Temp;Humidity;BMP_temperature;BMP_pressure;BME280_temperature;BME280_humidity;BME280_pressure;Samples;Min_cycle;Max_cycle;Signal;HPM_P1;HPM_P2
2023/01/27 00:00:10;;;;;;;1.33;0.13;;;;;;;;;;5032973;28;20112;-70
2023/01/27 00:02:37;;;;;;;9.97;0.93;;;;;;;;;;5031141;28;20029;-69
2023/01/27 00:05:04;;;;;;;3.13;0.37;;;;;;;;;;5033004;28;20087;-69
2023/01/27 00:07:31;;;;;;;0.50;0.20;;;;;;;;;;5028661;28;20108;-69
2023/01/27 00:09:58;;;;;;;0.70;0.43;;;;;;;;;;5027476;28;20045;-70
2023/01/27 00:15:11;;;;;;;0.77;0.20;;;;;;;;;;5027807;28;20043;-69
2023/01/27 00:17:38;;;;;;;7.63;0.73;;;;;;;;;;5031238;28;20017;-70
2023/01/27 00:20:06;;;;;;;2.23;0.60;;;;;;;;;;5032812;28;20030;-69
2023/01/27 00:25:18;;;;;;;0.30;0.10;;;;;;;;;;5032850;28;20446;-68
2023/01/27 00:27:45;;;;;;;0.23;0.23;;;;;;;;;;5032467;28;20044;-69
2023/01/27 00:30:12;;;;;;;0.17;0.13;;;;;;;;;;5027154;28;20033;-70
2023/01/27 00:35:24;;;;;;;;;;;;;;;;;;5026169;28;20437;-69
2023/01/27 00:37:51;;;;;;;0.50;0.30;;;;;;;;;;5041780;28;19905;-69
2023/01/27 00:40:17;;;;;;;1.40;0.50;;;;;;;;;;5032784;28;20021;-69
2023/01/27 00:42:44;;;;;;;0.53;0.23;;;;;;;;;;5030299;28;20028;-69
2023/01/27 00:47:56;;;;;;;1.57;0.70;;;;;;;;;;5032028;28;20384;-66
2023/01/27 00:50:23;;;;;;;0.30;0.20;;;;;;;;;;5031788;28;20041;-68
2023/01/27 00:52:51;;;;;;;0.70;0.30;;;;;;;;;;5026946;28;20038;-69
2023/01/27 00:55:18;;;;;;;0.47;0.20;;;;;;;;;;5026970;28;20030;-68
2023/01/27 00:57:45;;;;;;;0.80;0.43;;;;;;;;;;5026633;28;20369;-68
2023/01/27 01:00:13;;;;;;;0.20;0.10;;;;;;;;;;5026743;28;20030;-69
2023/01/27 01:02:40;;;;;;;6.80;0.30;;;;;;;;;;5031994;28;20021;-69
2023/01/27 01:05:07;;;;;;;1.70;0.43;;;;;;;;;;5030256;28;20421;-70
2023/01/27 01:07:34;;;;;;;2.40;0.50;;;;;;;;;;5032231;28;20017;-70
2023/01/27 01:10:01;;;;;;;2.80;0.40;;;;;;;;;;5031827;28;20087;-69
2023/01/27 01:12:27;;;;;;;11.53;0.50;;;;;;;;;;5031827;28;20027;-69
2023/01/27 01:14:54;;;;;;;1.70;0.40;;;;;;;;;;5026060;28;20129;-70
2023/01/27 01:17:21;;;;;;;1.00;0.60;;;;;;;;;;5025864;28;20432;-69
2023/01/27 01:19:47;;;;;;;2.07;0.60;;;;;;;;;;5029215;28;20021;-69
2023/01/27 01:22:14;;;;;;;0.47;0.30;;;;;;;;;;5019319;28;20033;-69
2023/01/27 01:24:41;;;;;;;1.80;0.40;;;;;;;;;;5031282;28;20423;-69
2023/01/27 01:27:07;;;;;;;2.17;0.93;;;;;;;;;;5032043;28;20028;-69
2023/01/27 01:29:34;;;;;;;1.20;0.53;;;;;;;;;;5031893;28;20025;-69
2023/01/27 01:32:01;;;;;;;0.73;0.40;;;;;;;;;;5031892;28;20040;-69
2023/01/27 01:34:27;;;;;;;0.20;0.20;;;;;;;;;;5031294;28;20376;-69
2023/01/27 01:36:54;;;;;;;2.17;0.63;;;;;;;;;;5027200;28;20022;-69
2023/01/27 01:39:21;;;;;;;0.83;0.57;;;;;;;;;;5026783;28;20029;-69
2023/01/27 01:41:47;;;;;;;1.07;0.73;;;;;;;;;;5026790;28;20029;-69
2023/01/27 01:44:24;;;;;;;5.50;0.50;;;;;;;;;;5026417;28;20529;-69
2023/01/27 01:46:51;;;;;;;2.03;1.00;;;;;;;;;;5030510;28;20028;-69
2023/01/27 01:49:19;;;;;;;1.03;0.40;;;;;;;;;;5031361;28;20038;-69
2023/01/27 01:51:48;;;;;;;10.13;1.03;;;;;;;;;;5034522;28;20468;-69
2023/01/27 01:54:17;;;;;;;3.17;1.00;;;;;;;;;;5035610;28;20026;-68
2023/01/27 01:56:49;;;;;;;1.07;0.57;;;;;;;;;;5043628;28;20025;-67
2023/01/27 01:59:19;;;;;;;2.30;0.80;;;;;;;;;;5036420;28;20090;-69
2023/01/27 02:01:46;;;;;;;0.80;0.40;;;;;;;;;;5050058;28;20017;-68
2023/01/27 02:04:15;;;;;;;2.50;0.83;;;;;;;;;;5038759;28;20030;-70
2023/01/27 02:07:08;;;;;;;1.17;0.87;;;;;;;;;;5030110;28;20133;-67
2023/01/27 02:09:35;;;;;;;0.83;0.43;;;;;;;;;;5033057;28;20056;-68
2023/01/27 02:12:02;;;;;;;2.03;0.80;;;;;;;;;;5040374;28;20021;-67
2023/01/27 02:14:28;;;;;;;1.10;0.80;;;;;;;;;;5055159;28;20376;-68
2023/01/27 02:16:56;;;;;;;2.33;0.70;;;;;;;;;;5035861;28;20034;-71
2023/01/27 02:19:27;;;;;;;2.13;0.57;;;;;;;;;;5034943;28;20357;-70
2023/01/27 02:21:55;;;;;;;0.50;0.30;;;;;;;;;;5030162;28;20041;-67
2023/01/27 02:24:24;;;;;;;0.30;0.30;;;;;;;;;;5030122;28;20036;-68
2023/01/27 02:26:51;;;;;;;2.57;0.93;;;;;;;;;;5029532;28;20052;-70
2023/01/27 02:29:18;;;;;;;1.17;0.57;;;;;;;;;;5036887;28;20033;-67
2023/01/27 02:31:45;;;;;;;0.63;0.53;;;;;;;;;;5040774;28;20044;-66
2023/01/27 02:34:16;;;;;;;0.60;0.50;;;;;;;;;;5034963;28;20075;-67
2023/01/27 02:36:48;;;;;;;1.03;0.60;;;;;;;;;;5034704;28;20023;-66
2023/01/27 02:39:16;;;;;;;1.17;0.60;;;;;;;;;;5034867;28;20017;-67
2023/01/27 02:41:44;;;;;;;0.50;0.40;;;;;;;;;;5034364;28;20112;-67
2023/01/27 02:44:11;;;;;;;1.43;0.60;;;;;;;;;;5028966;28;20044;-67
2023/01/27 02:46:38;;;;;;;1.50;0.70;;;;;;;;;;5029191;28;20030;-69
2023/01/27 02:49:05;;;;;;;1.50;0.63;;;;;;;;;;5029123;28;20091;-68
2023/01/27 02:51:31;;;;;;;0.87;0.43;;;;;;;;;;5029220;28;20102;-68
2023/01/27 02:53:58;;;;;;;0.60;0.43;;;;;;;;;;5033662;28;20100;-68
2023/01/27 02:56:25;;;;;;;1.17;0.70;;;;;;;;;;5034025;28;20052;-68
2023/01/27 02:58:52;;;;;;;0.77;0.27;;;;;;;;;;5033504;28;20531;-66
2023/01/27 03:01:18;;;;;;;0.43;0.20;;;;;;;;;;5034376;28;20049;-67
2023/01/27 03:03:48;;;;;;;0.80;0.57;;;;;;;;;;5043153;28;20025;-67
2023/01/27 03:06:14;;;;;;;3.50;0.93;;;;;;;;;;5038126;28;20053;-67
2023/01/27 03:08:42;;;;;;;0.67;0.40;;;;;;;;;;5028826;28;20025;-67
2023/01/27 03:11:09;;;;;;;0.63;0.50;;;;;;;;;;5029018;28;20476;-66
2023/01/27 03:13:36;;;;;;;1.07;0.50;;;;;;;;;;5028779;28;20018;-69
2023/01/27 03:18:48;;;;;;;;;;;;;;;;;;5034485;28;20171;-71
2023/01/27 03:21:15;;;;;;;0.60;0.57;;;;;;;;;;5034033;28;19905;-71
2023/01/27 03:23:44;;;;;;;1.17;0.37;;;;;;;;;;5033922;28;20021;-72
2023/01/27 03:26:11;;;;;;;0.80;0.63;;;;;;;;;;5033495;28;20045;-72
2023/01/27 03:28:38;;;;;;;1.63;1.13;;;;;;;;;;5028397;28;20049;-73
2023/01/27 03:31:06;;;;;;;7.67;0.87;;;;;;;;;;5028783;28;20140;-73
2023/01/27 03:33:33;;;;;;;6.90;0.83;;;;;;;;;;5027977;28;20103;-72
2023/01/27 03:47:03;;;;;;;0.55;0.22;;;;;;;;;;5033500;28;20092;-73
2023/01/27 03:49:30;;;;;;;0.20;0.20;;;;;;;;;;5031018;28;20041;-73
2023/01/27 03:51:57;;;;;;;3.00;0.77;;;;;;;;;;5028462;28;20029;-71
2023/01/27 03:54:24;;;;;;;2.63;0.83;;;;;;;;;;5028203;28;20032;-70
2023/01/27 03:56:51;;;;;;;0.73;0.50;;;;;;;;;;5028162;28;20388;-71
2023/01/27 03:59:17;;;;;;;0.10;0.10;;;;;;;;;;5028863;28;20066;-72
2023/01/27 04:01:44;;;;;;;0.63;0.30;;;;;;;;;;5033071;28;20034;-71
2023/01/27 04:07:01;;;;;;;0.70;0.60;;;;;;;;;;5033702;28;20119;-70
2023/01/27 04:09:32;;;;;;;0.63;0.30;;;;;;;;;;5032801;28;20029;-72
2023/01/27 04:12:00;;;;;;;0.83;0.47;;;;;;;;;;5030611;28;20091;-72
2023/01/27 04:14:31;;;;;;;0.40;0.23;;;;;;;;;;5027708;28;20097;-72
2023/01/27 04:16:59;;;;;;;0.63;0.43;;;;;;;;;;5027726;28;20029;-72
2023/01/27 04:19:26;;;;;;;0.03;0.03;;;;;;;;;;5027764;28;20056;-72
2023/01/27 04:21:53;;;;;;;0.03;0.00;;;;;;;;;;5029665;28;20029;-72
2023/01/27 04:24:23;;;;;;;3.60;0.70;;;;;;;;;;5032492;28;20021;-72
2023/01/27 04:26:53;;;;;;;4.63;0.40;;;;;;;;;;5032788;28;20036;-70
2023/01/27 04:29:20;;;;;;;5.00;0.70;;;;;;;;;;5032366;28;20365;-72
2023/01/27 04:31:47;;;;;;;1.13;0.30;;;;;;;;;;5032827;28;20021;-71
2023/01/27 04:34:14;;;;;;;1.50;0.23;;;;;;;;;;5030350;28;20096;-72
2023/01/27 04:36:41;;;;;;;2.10;0.50;;;;;;;;;;5027301;28;20025;-72
2023/01/27 04:39:09;;;;;;;0.40;0.40;;;;;;;;;;5018970;28;20030;-69
2023/01/27 04:41:35;;;;;;;0.30;0.23;;;;;;;;;;5016840;28;20476;-69
2023/01/27 04:44:03;;;;;;;0.60;0.37;;;;;;;;;;5027650;28;20091;-68
2023/01/27 04:46:30;;;;;;;0.10;0.10;;;;;;;;;;5032336;28;20518;-69
2023/01/27 04:48:56;;;;;;;0.40;0.23;;;;;;;;;;5032302;28;20120;-68
2023/01/27 04:51:23;;;;;;;11.13;0.90;;;;;;;;;;5032452;28;20025;-68
2023/01/27 04:53:50;;;;;;;0.40;0.20;;;;;;;;;;5032344;28;20030;-68
2023/01/27 04:56:20;;;;;;;0.23;0.23;;;;;;;;;;5029945;28;20029;-69
2023/01/27 04:58:46;;;;;;;0.27;0.20;;;;;;;;;;5026865;28;20060;-69
2023/01/27 05:01:13;;;;;;;0.00;0.00;;;;;;;;;;5026774;28;20439;-68
2023/01/27 05:03:40;;;;;;;1.17;0.57;;;;;;;;;;5027080;28;20035;-69
2023/01/27 05:06:07;;;;;;;1.93;1.00;;;;;;;;;;5027837;28;20484;-68
2023/01/27 05:08:33;;;;;;;0.67;0.40;;;;;;;;;;5032344;28;20021;-68
2023/01/27 05:11:00;;;;;;;0.10;0.10;;;;;;;;;;5031408;28;20390;-68
2023/01/27 05:13:27;;;;;;;2.93;0.83;;;;;;;;;;5032111;28;20029;-69
2023/01/27 05:16:03;;;;;;;1.00;0.53;;;;;;;;;;5032465;28;20033;-68
2023/01/27 05:18:30;;;;;;;0.63;0.57;;;;;;;;;;5030445;28;20032;-69
2023/01/27 05:21:00;;;;;;;1.00;0.60;;;;;;;;;;5026979;28;20022;-69
2023/01/27 05:23:36;;;;;;;0.50;0.43;;;;;;;;;;5026652;28;20025;-68
2023/01/27 05:26:06;;;;;;;1.50;0.50;;;;;;;;;;5028363;28;20411;-68
2023/01/27 05:28:33;;;;;;;2.57;0.77;;;;;;;;;;5032034;28;20021;-68
2023/01/27 05:31:07;;;;;;;0.33;0.23;;;;;;;;;;5035936;28;20056;-68
2023/01/27 05:33:34;;;;;;;0.40;0.25;;;;;;;;;;5035730;28;20029;-68
2023/01/27 05:36:02;;;;;;;0.60;0.50;;;;;;;;;;5034294;28;20033;-68
2023/01/27 05:38:29;;;;;;;0.27;0.27;;;;;;;;;;5035911;28;20036;-68
2023/01/27 05:40:57;;;;;;;0.40;0.33;;;;;;;;;;5033894;28;20396;-68
2023/01/27 05:43:24;;;;;;;1.67;0.57;;;;;;;;;;5030427;28;20581;-68
2023/01/27 05:45:50;;;;;;;0.33;0.33;;;;;;;;;;5030420;28;20032;-68
2023/01/27 05:48:17;;;;;;;0.50;0.47;;;;;;;;;;5030230;28;20372;-68
2023/01/27 05:50:44;;;;;;;1.10;0.70;;;;;;;;;;5031639;28;20116;-68
2023/01/27 05:53:10;;;;;;;0.33;0.30;;;;;;;;;;5035174;28;20022;-68
2023/01/27 05:55:37;;;;;;;2.87;0.40;;;;;;;;;;5035620;28;20025;-68
2023/01/27 05:58:04;;;;;;;0.30;0.20;;;;;;;;;;5035761;28;20072;-68
2023/01/27 06:00:30;;;;;;;0.30;0.20;;;;;;;;;;5035704;28;20026;-68
2023/01/27 06:02:57;;;;;;;1.50;0.60;;;;;;;;;;5033891;28;20014;-68
2023/01/27 06:05:24;;;;;;;0.20;0.20;;;;;;;;;;5029999;28;20400;-68
2023/01/27 06:07:51;;;;;;;0.00;0.00;;;;;;;;;;5029944;28;20053;-67
2023/01/27 06:10:17;;;;;;;0.13;0.10;;;;;;;;;;5029889;28;20025;-68
2023/01/27 06:12:44;;;;;;;0.50;0.30;;;;;;;;;;5030616;28;20113;-69
2023/01/27 06:15:11;;;;;;;0.00;0.00;;;;;;;;;;5035407;28;20032;-68
2023/01/27 06:17:37;;;;;;;0.70;0.40;;;;;;;;;;5035296;28;20096;-67
2023/01/27 06:20:04;;;;;;;3.30;0.63;;;;;;;;;;5035126;28;20026;-68
2023/01/27 06:22:31;;;;;;;2.37;0.20;;;;;;;;;;5035106;28;20108;-68
2023/01/27 06:24:58;;;;;;;0.50;0.30;;;;;;;;;;5033669;28;20258;-67
2023/01/27 06:27:24;;;;;;;2.50;0.73;;;;;;;;;;5029581;28;20757;-68
2023/01/27 06:29:51;;;;;;;0.73;0.40;;;;;;;;;;5029528;28;20373;-67
2023/01/27 06:32:18;;;;;;;1.13;0.60;;;;;;;;;;5029621;28;20324;-67
2023/01/27 06:34:44;;;;;;;0.73;0.40;;;;;;;;;;5029808;28;20595;-68
2023/01/27 06:37:11;;;;;;;0.63;0.37;;;;;;;;;;5033551;28;20254;-68
2023/01/27 06:39:38;;;;;;;1.00;0.57;;;;;;;;;;5034749;28;20259;-68
2023/01/27 06:42:06;;;;;;;0.13;0.13;;;;;;;;;;5034257;28;20258;-67
2023/01/27 06:44:33;;;;;;;0.30;0.20;;;;;;;;;;5034789;28;20749;-67
2023/01/27 06:46:59;;;;;;;0.40;0.33;;;;;;;;;;5034198;28;20254;-67
2023/01/27 06:49:26;;;;;;;0.37;0.27;;;;;;;;;;5029044;28;20287;-67
2023/01/27 06:51:52;;;;;;;0.13;0.13;;;;;;;;;;5029329;28;20274;-67
2023/01/27 06:54:19;;;;;;;0.10;0.10;;;;;;;;;;5029116;28;20258;-68
2023/01/27 06:56:46;;;;;;;0.50;0.40;;;;;;;;;;5029302;28;20306;-68
2023/01/27 06:59:13;;;;;;;0.40;0.30;;;;;;;;;;5034014;28;20277;-67
2023/01/27 07:01:39;;;;;;;3.53;0.90;;;;;;;;;;5034458;28;20393;-67
2023/01/27 07:04:06;;;;;;;0.30;0.30;;;;;;;;;;5034020;28;20263;-68
2023/01/27 07:06:33;;;;;;;1.73;0.60;;;;;;;;;;5034275;28;20330;-67
2023/01/27 07:08:59;;;;;;;0.47;0.40;;;;;;;;;;5034319;28;20617;-67
2023/01/27 07:11:26;;;;;;;0.17;0.17;;;;;;;;;;5028824;28;20267;-67
2023/01/27 07:13:53;;;;;;;0.57;0.40;;;;;;;;;;5027866;28;20609;-67
2023/01/27 07:16:19;;;;;;;0.20;0.10;;;;;;;;;;5028704;28;20262;-67
2023/01/27 07:18:46;;;;;;;0.20;0.20;;;;;;;;;;5028727;28;20812;-67
2023/01/27 07:21:13;;;;;;;1.60;0.60;;;;;;;;;;5032991;28;20266;-67
2023/01/27 07:23:39;;;;;;;0.40;0.30;;;;;;;;;;5033987;28;20316;-67
2023/01/27 07:26:06;;;;;;;0.00;0.00;;;;;;;;;;5033997;28;20346;-67
2023/01/27 07:28:33;;;;;;;0.60;0.60;;;;;;;;;;5033756;28;20309;-67
2023/01/27 07:31:03;;;;;;;0.63;0.40;;;;;;;;;;5033360;28;20310;-67
2023/01/27 07:33:29;;;;;;;1.30;0.30;;;;;;;;;;5028879;28;20273;-67
2023/01/27 07:35:56;;;;;;;0.37;0.30;;;;;;;;;;5028404;28;20305;-67
2023/01/27 07:38:23;;;;;;;0.50;0.40;;;;;;;;;;5028534;28;20270;-67
2023/01/27 07:40:50;;;;;;;0.10;0.10;;;;;;;;;;5028159;28;20266;-67
2023/01/27 07:43:17;;;;;;;0.50;0.50;;;;;;;;;;5032468;28;20275;-67
2023/01/27 07:45:47;;;;;;;0.10;0.10;;;;;;;;;;5032939;28;20259;-67
2023/01/27 07:48:15;;;;;;;0.50;0.40;;;;;;;;;;5033086;28;20610;-67
2023/01/27 07:50:41;;;;;;;0.13;0.13;;;;;;;;;;5033390;28;20380;-67
2023/01/27 07:53:10;;;;;;;1.13;0.37;;;;;;;;;;5033339;28;20320;-68
2023/01/27 07:55:37;;;;;;;0.33;0.20;;;;;;;;;;5028633;28;20277;-67
2023/01/27 07:58:04;;;;;;;0.13;0.10;;;;;;;;;;5028100;28;20271;-67
2023/01/27 08:00:30;;;;;;;0.13;0.10;;;;;;;;;;5027212;28;20678;-67
2023/01/27 08:02:58;;;;;;;0.27;0.20;;;;;;;;;;5027961;28;20271;-67
2023/01/27 08:05:25;;;;;;;1.13;0.60;;;;;;;;;;5031880;28;20258;-67
2023/01/27 08:07:53;;;;;;;0.60;0.50;;;;;;;;;;5033079;28;20321;-67
2023/01/27 08:10:20;;;;;;;0.30;0.27;;;;;;;;;;5033049;28;20279;-67
2023/01/27 08:12:46;;;;;;;0.97;0.20;;;;;;;;;;5033074;28;20345;-67
2023/01/27 08:15:13;;;;;;;0.50;0.33;;;;;;;;;;5032868;28;20290;-67
2023/01/27 08:17:40;;;;;;;0.10;0.10;;;;;;;;;;5028409;28;20618;-67
2023/01/27 08:20:07;;;;;;;0.47;0.33;;;;;;;;;;5027492;28;20813;-67
2023/01/27 08:22:34;;;;;;;0.10;0.10;;;;;;;;;;5027696;28;20345;-67
2023/01/27 08:25:00;;;;;;;0.00;0.00;;;;;;;;;;5027380;28;20255;-67
2023/01/27 08:27:27;;;;;;;0.50;0.40;;;;;;;;;;5031185;28;20282;-67
2023/01/27 08:29:54;;;;;;;0.10;0.10;;;;;;;;;;5032574;28;20286;-66
2023/01/27 08:32:21;;;;;;;0.00;0.00;;;;;;;;;;5032263;28;20269;-67
2023/01/27 08:34:48;;;;;;;0.10;0.10;;;;;;;;;;5032564;28;20760;-67
2023/01/27 08:37:14;;;;;;;0.47;0.23;;;;;;;;;;5032642;28;20254;-67
2023/01/27 08:39:41;;;;;;;0.57;0.40;;;;;;;;;;5028322;28;20274;-67
2023/01/27 08:42:08;;;;;;;0.63;0.37;;;;;;;;;;5027592;28;20609;-68
2023/01/27 08:44:34;;;;;;;0.50;0.47;;;;;;;;;;5027305;28;20272;-67
2023/01/27 08:47:01;;;;;;;4.07;0.40;;;;;;;;;;5027129;28;20251;-67
2023/01/27 08:49:28;;;;;;;0.10;0.10;;;;;;;;;;5029854;28;20788;-67
2023/01/27 08:51:55;;;;;;;0.33;0.33;;;;;;;;;;5032474;28;20287;-67
2023/01/27 08:54:21;;;;;;;0.30;0.20;;;;;;;;;;5032343;28;20293;-67
2023/01/27 08:56:48;;;;;;;0.27;0.27;;;;;;;;;;5032280;28;20696;-67
2023/01/27 08:59:15;;;;;;;0.30;0.30;;;;;;;;;;5032423;28;20304;-67
2023/01/27 09:01:41;;;;;;;0.50;0.33;;;;;;;;;;5028257;28;20262;-67
2023/01/27 09:04:08;;;;;;;0.10;0.10;;;;;;;;;;5026787;28;20704;-67
2023/01/27 09:06:35;;;;;;;0.20;0.20;;;;;;;;;;5026837;28;20263;-67
2023/01/27 09:09:08;;;;;;;0.10;0.10;;;;;;;;;;5026884;28;20798;-67
2023/01/27 09:11:35;;;;;;;20.37;0.67;;;;;;;;;;5029660;28;20393;-67
2023/01/27 09:14:02;;;;;;;0.37;0.30;;;;;;;;;;5032048;28;20618;-67
2023/01/27 09:16:29;;;;;;;0.20;0.20;;;;;;;;;;5032254;28;20768;-67
2023/01/27 09:18:57;;;;;;;0.17;0.17;;;;;;;;;;5031705;28;20251;-67
2023/01/27 09:21:24;;;;;;;0.50;0.47;;;;;;;;;;5032166;28;20368;-67
2023/01/27 09:23:50;;;;;;;0.23;0.23;;;;;;;;;;5029129;28;20334;-67
2023/01/27 09:26:17;;;;;;;0.37;0.17;;;;;;;;;;5026668;28;20372;-67
2023/01/27 09:28:44;;;;;;;0.20;0.20;;;;;;;;;;5026521;28;20372;-68
2023/01/27 09:31:11;;;;;;;0.50;0.40;;;;;;;;;;5027044;28;20338;-67
2023/01/27 09:33:38;;;;;;;0.10;0.10;;;;;;;;;;5029091;28;20733;-67
2023/01/27 09:36:10;;;;;;;0.97;0.37;;;;;;;;;;5031870;28;20247;-66
2023/01/27 09:38:57;;;;;;;0.77;0.43;;;;;;;;;;5031884;28;20262;-68
2023/01/27 09:41:38;;;;;;;0.20;0.20;;;;;;;;;;5032080;28;20756;-67
2023/01/27 09:44:16;;;;;;;0.10;0.10;;;;;;;;;;5031564;28;20278;-67
2023/01/27 09:46:58;;;;;;;0.00;0.00;;;;;;;;;;5027279;28;20657;-67
2023/01/27 09:49:43;;;;;;;0.30;0.30;;;;;;;;;;5026479;28;20298;-67
2023/01/27 09:52:13;;;;;;;0.10;0.10;;;;;;;;;;5026751;28;20348;-67
2023/01/27 09:54:47;;;;;;;0.20;0.20;;;;;;;;;;5026687;28;20345;-67
2023/01/27 09:57:17;;;;;;;0.25;0.25;;;;;;;;;;5031885;28;20266;-66
2023/01/27 09:59:46;;;;;;;0.20;0.20;;;;;;;;;;5031798;28;20021;-67
2023/01/27 10:02:29;;;;;;;0.33;0.33;;;;;;;;;;5031789;28;20289;-67
2023/01/27 10:04:56;;;;;;;0.50;0.50;;;;;;;;;;5031905;28;20274;-66
2023/01/27 10:07:41;;;;;;;0.90;0.60;;;;;;;;;;5030009;28;20263;-67
2023/01/27 10:10:08;;;;;;;1.58;0.55;;;;;;;;;;5026192;28;20286;-67
2023/01/27 10:12:53;;;;;;;1.07;0.80;;;;;;;;;;5028564;28;20506;-67
2023/01/27 10:15:32;;;;;;;0.17;0.17;;;;;;;;;;5030031;28;20258;-67
2023/01/27 10:18:05;;;;;;;0.30;0.20;;;;;;;;;;5031777;28;20542;-67
2023/01/27 10:20:31;;;;;;;0.87;0.67;;;;;;;;;;5034864;28;20267;-67
2023/01/27 10:22:58;;;;;;;0.43;0.43;;;;;;;;;;5035181;28;20251;-67
2023/01/27 10:25:34;;;;;;;0.30;0.13;;;;;;;;;;5035054;28;20250;-67
2023/01/27 10:28:03;;;;;;;0.23;0.23;;;;;;;;;;5034964;28;20285;-67
2023/01/27 10:30:34;;;;;;;0.67;0.40;;;;;;;;;;5031226;28;20867;-67
2023/01/27 10:33:08;;;;;;;0.53;0.47;;;;;;;;;;5029718;28;20270;-67
2023/01/27 10:35:41;;;;;;;0.50;0.30;;;;;;;;;;5029418;28;20271;-67
2023/01/27 10:38:15;;;;;;;0.30;0.30;;;;;;;;;;5029562;28;20259;-67
2023/01/27 10:40:56;;;;;;;0.50;0.43;;;;;;;;;;5032431;28;20290;-67
2023/01/27 10:43:23;;;;;;;0.40;0.40;;;;;;;;;;5034306;28;20302;-67
2023/01/27 10:45:59;;;;;;;0.00;0.00;;;;;;;;;;5034790;28;20253;-67
2023/01/27 10:48:29;;;;;;;1.30;0.23;;;;;;;;;;5034737;28;20253;-67
2023/01/27 10:51:01;;;;;;;0.60;0.30;;;;;;;;;;5034125;28;20334;-67
2023/01/27 10:53:51;;;;;;;0.20;0.20;;;;;;;;;;5029618;28;20251;-67
2023/01/27 10:56:18;;;;;;;0.20;0.20;;;;;;;;;;5021281;28;20284;-67
2023/01/27 10:58:51;;;;;;;0.20;0.20;;;;;;;;;;5028913;28;20682;-67
2023/01/27 11:01:20;;;;;;;0.47;0.40;;;;;;;;;;5028992;28;20753;-67
2023/01/27 11:03:54;;;;;;;0.20;0.20;;;;;;;;;;5034485;28;20251;-67
2023/01/27 11:06:26;;;;;;;0.77;0.57;;;;;;;;;;5034505;28;20258;-67
2023/01/27 11:08:55;;;;;;;0.40;0.30;;;;;;;;;;5034090;28;20243;-66
2023/01/27 11:14:15;;;;;;;0.30;0.20;;;;;;;;;;5032782;28;20764;-67
2023/01/27 11:16:45;;;;;;;0.30;0.30;;;;;;;;;;5028874;28;20302;-67
2023/01/27 11:19:21;;;;;;;0.50;0.40;;;;;;;;;;5028556;28;20247;-67
2023/01/27 11:21:50;;;;;;;0.60;0.50;;;;;;;;;;5028561;28;20298;-66
2023/01/27 11:24:23;;;;;;;0.57;0.47;;;;;;;;;;5029723;28;20308;-67
2023/01/27 11:26:54;;;;;;;0.20;0.20;;;;;;;;;;5034149;28;20674;-66
2023/01/27 11:29:39;;;;;;;0.13;0.13;;;;;;;;;;5033869;28;20677;-66
2023/01/27 11:32:24;;;;;;;0.40;0.40;;;;;;;;;;5034211;28;20801;-67
2023/01/27 11:34:54;;;;;;;0.75;0.52;;;;;;;;;;5033815;28;20527;-67
2023/01/27 11:37:25;;;;;;;0.20;0.20;;;;;;;;;;5029981;28;20037;-67
2023/01/27 11:39:51;;;;;;;1.63;1.00;;;;;;;;;;5028416;28;20263;-66
2023/01/27 11:42:20;;;;;;;0.43;0.43;;;;;;;;;;5028017;28;20294;-67
2023/01/27 11:44:47;;;;;;;0.77;0.60;;;;;;;;;;5028344;28;20357;-66
2023/01/27 11:47:21;;;;;;;0.90;0.60;;;;;;;;;;5031192;28;20278;-67
2023/01/27 11:49:48;;;;;;;0.30;0.20;;;;;;;;;;5033041;28;20286;-66
2023/01/27 11:52:17;;;;;;;0.30;0.30;;;;;;;;;;5033237;28;20294;-66
2023/01/27 11:54:47;;;;;;;0.87;0.60;;;;;;;;;;5033540;28;20487;-66
2023/01/27 11:57:21;;;;;;;0.33;0.33;;;;;;;;;;5033428;28;20254;-66
2023/01/27 11:59:49;;;;;;;0.83;0.77;;;;;;;;;;5029218;28;20745;-66
2023/01/27 12:02:34;;;;;;;1.20;0.57;;;;;;;;;;5028118;28;20267;-66
2023/01/27 12:05:11;;;;;;;1.80;0.68;;;;;;;;;;5028100;28;20270;-66
2023/01/27 12:07:47;;;;;;;0.30;0.20;;;;;;;;;;5027951;28;21455;-66
2023/01/27 12:10:20;;;;;;;0.73;0.63;;;;;;;;;;5032616;28;20278;-66
2023/01/27 12:12:46;;;;;;;0.30;0.17;;;;;;;;;;5033038;28;20760;-66
2023/01/27 12:15:17;;;;;;;0.27;0.27;;;;;;;;;;5033162;28;20259;-65
2023/01/27 12:17:53;;;;;;;0.30;0.27;;;;;;;;;;5032575;28;20324;-66
2023/01/27 12:20:20;;;;;;;0.40;0.40;;;;;;;;;;5032640;28;20807;-66
2023/01/27 12:22:47;;;;;;;0.57;0.57;;;;;;;;;;5027584;28;20251;-66
2023/01/27 12:25:23;;;;;;;0.40;0.37;;;;;;;;;;5027197;28;20263;-66
2023/01/27 12:27:54;;;;;;;0.23;0.23;;;;;;;;;;5027641;28;20680;-65
2023/01/27 12:30:22;;;;;;;0.33;0.30;;;;;;;;;;5027603;28;20375;-66
2023/01/27 12:32:49;;;;;;;0.30;0.30;;;;;;;;;;5032583;28;20270;-66
2023/01/27 12:35:19;;;;;;;2.00;0.77;;;;;;;;;;5031540;28;20253;-66
2023/01/27 12:37:45;;;;;;;0.40;0.40;;;;;;;;;;5032295;28;20251;-66
2023/01/27 12:40:20;;;;;;;1.10;0.83;;;;;;;;;;5032765;28;20321;-66
2023/01/27 12:42:50;;;;;;;0.40;0.40;;;;;;;;;;5031396;28;20305;-66
2023/01/27 12:45:33;;;;;;;2.07;1.37;;;;;;;;;;5027273;28;20265;-66
2023/01/27 12:48:09;;;;;;;1.47;0.90;;;;;;;;;;5027392;28;20338;-66
2023/01/27 12:50:37;;;;;;;2.20;1.87;;;;;;;;;;5027201;28;20294;-66
2023/01/27 12:53:14;;;;;;;2.50;2.00;;;;;;;;;;5028194;28;20364;-65
2023/01/27 12:56:16;;;;;;;2.03;0.90;;;;;;;;;;5032373;28;20283;-66
2023/01/27 12:58:55;;;;;;;0.67;0.60;;;;;;;;;;4971482;28;20259;-65
2023/01/27 13:01:32;;;;;;;1.50;1.23;;;;;;;;;;5025556;28;20774;-65
2023/01/27 13:04:19;;;;;;;0.97;0.87;;;;;;;;;;5032356;28;20313;-65
2023/01/27 13:06:50;;;;;;;0.30;0.30;;;;;;;;;;5027031;28;20324;-65
2023/01/27 13:09:19;;;;;;;0.40;0.30;;;;;;;;;;5026564;28;20271;-65
2023/01/27 13:11:46;;;;;;;0.20;0.20;;;;;;;;;;5026501;28;20332;-65
2023/01/27 13:14:16;;;;;;;0.50;0.50;;;;;;;;;;5026930;28;20341;-65
2023/01/27 13:16:50;;;;;;;1.03;0.70;;;;;;;;;;5031717;28;20263;-65
2023/01/27 13:19:18;;;;;;;0.43;0.43;;;;;;;;;;5032218;28;20755;-65
2023/01/27 13:21:46;;;;;;;2.07;1.10;;;;;;;;;;5032218;28;20290;-65
2023/01/27 13:24:17;;;;;;;0.67;0.50;;;;;;;;;;5031277;28;20336;-65
2023/01/27 13:26:44;;;;;;;2.53;1.10;;;;;;;;;;5032081;28;20325;-65
2023/01/27 13:29:14;;;;;;;0.77;0.67;;;;;;;;;;5026651;28;20589;-65
2023/01/27 13:31:44;;;;;;;0.20;0.20;;;;;;;;;;5026452;28;20669;-65
2023/01/27 13:34:26;;;;;;;0.40;0.40;;;;;;;;;;5026948;28;20293;-65
2023/01/27 13:37:08;;;;;;;0.60;0.50;;;;;;;;;;5027160;28;20287;-65
2023/01/27 13:39:35;;;;;;;1.20;0.53;;;;;;;;;;5031628;28;20263;-65
2023/01/27 13:42:11;;;;;;;1.70;1.17;;;;;;;;;;5031436;28;20259;-65
2023/01/27 13:44:49;;;;;;;1.47;0.83;;;;;;;;;;5031086;28;20277;-65
2023/01/27 13:47:22;;;;;;;0.57;0.57;;;;;;;;;;5033700;28;20254;-65
2023/01/27 13:49:55;;;;;;;3.93;1.83;;;;;;;;;;5033498;28;20599;-65
2023/01/27 13:52:22;;;;;;;3.60;1.53;;;;;;;;;;5030342;28;20341;-65
2023/01/27 13:54:49;;;;;;;8.90;1.87;;;;;;;;;;5029565;28;20285;-65
2023/01/27 13:57:42;;;;;;;22.97;2.60;;;;;;;;;;5030197;28;20818;-65
2023/01/27 14:00:11;;;;;;;1.80;1.47;;;;;;;;;;5030457;28;20602;-65
2023/01/27 14:02:37;;;;;;;2.83;1.37;;;;;;;;;;5034732;28;20255;-66
2023/01/27 14:05:04;;;;;;;2.00;0.93;;;;;;;;;;5034299;28;20349;-66
2023/01/27 14:07:37;;;;;;;2.40;1.23;;;;;;;;;;5034516;28;20258;-66
2023/01/27 14:10:12;;;;;;;3.43;1.03;;;;;;;;;;5035303;28;20289;-66
2023/01/27 14:12:47;;;;;;;1.83;1.10;;;;;;;;;;5031853;28;20267;-66
2023/01/27 14:15:16;;;;;;;1.05;0.70;;;;;;;;;;5029815;28;20035;-66
2023/01/27 14:17:48;;;;;;;1.17;0.70;;;;;;;;;;5029765;28;20127;-66
2023/01/27 14:20:15;;;;;;;1.23;0.80;;;;;;;;;;5029542;28;20358;-66
2023/01/27 14:22:55;;;;;;;2.53;0.70;;;;;;;;;;5032955;28;20337;-66
2023/01/27 14:25:24;;;;;;;1.20;0.90;;;;;;;;;;5034971;28;20671;-67
2023/01/27 14:28:14;;;;;;;2.40;0.90;;;;;;;;;;5035058;28;20273;-66
2023/01/27 14:30:43;;;;;;;1.70;1.47;;;;;;;;;;5015507;28;20053;-66
2023/01/27 14:33:16;;;;;;;2.70;1.37;;;;;;;;;;5015092;28;20113;-66
2023/01/27 14:35:46;;;;;;;2.23;1.07;;;;;;;;;;5009509;28;20200;-66
2023/01/27 14:38:22;;;;;;;7.57;1.23;;;;;;;;;;5009676;28;20446;-66
2023/01/27 14:40:52;;;;;;;22.37;0.83;;;;;;;;;;5009650;28;20485;-66
2023/01/27 14:43:38;;;;;;;0.47;0.40;;;;;;;;;;5009509;28;20049;-66
2023/01/27 14:46:15;;;;;;;0.90;0.60;;;;;;;;;;5019602;28;20030;-66
2023/01/27 14:48:55;;;;;;;1.07;0.67;;;;;;;;;;5034946;28;20048;-66
2023/01/27 14:51:28;;;;;;;0.77;0.60;;;;;;;;;;5034281;28;20090;-67
2023/01/27 14:54:00;;;;;;;0.90;0.60;;;;;;;;;;5034503;28;20026;-67
2023/01/27 14:56:27;;;;;;;0.93;0.57;;;;;;;;;;5032245;28;20534;-67
2023/01/27 14:59:05;;;;;;;0.50;0.40;;;;;;;;;;5027896;28;20025;-66
2023/01/27 15:01:51;;;;;;;1.00;0.73;;;;;;;;;;5028510;28;20037;-66
2023/01/27 15:04:18;;;;;;;2.30;0.57;;;;;;;;;;5029037;28;20112;-67
2023/01/27 15:06:51;;;;;;;2.53;0.70;;;;;;;;;;5031422;28;20083;-67
2023/01/27 15:09:36;;;;;;;0.40;0.33;;;;;;;;;;5034151;28;20030;-67
2023/01/27 15:12:21;;;;;;;1.73;0.52;;;;;;;;;;5034068;28;20017;-67
2023/01/27 15:15:10;;;;;;;1.45;0.45;;;;;;;;;;5034186;28;20083;-67
2023/01/27 15:17:53;;;;;;;1.13;0.70;;;;;;;;;;5033722;28;20053;-67
2023/01/27 15:20:38;;;;;;;2.80;0.63;;;;;;;;;;5028309;28;20033;-67
2023/01/27 15:23:20;;;;;;;2.95;1.15;;;;;;;;;;5028744;28;20099;-67
2023/01/27 15:25:49;;;;;;;1.70;1.10;;;;;;;;;;5028488;28;20037;-67
2023/01/27 15:28:17;;;;;;;10.57;0.77;;;;;;;;;;5029704;28;20040;-67